createdAt,value
2019-05-14T00:00:13.196Z,74.27
2019-05-14T00:01:14.969Z,74.38
2019-05-14T00:02:15.420Z,74.27
2019-05-14T00:03:15.983Z,74.40
2019-05-14T00:04:16.385Z,74.11
2019-05-14T00:05:16.975Z,74.60
2019-05-14T00:06:16.467Z,74.40
2019-05-14T00:07:18.020Z,74.86
2019-05-14T00:08:18.656Z,74.56
2019-05-14T00:09:21.395Z,75.72
2019-05-14T00:10:18.865Z,75.26
2019-05-14T00:11:21.947Z,74.92
2019-05-14T00:12:22.119Z,74.41
2019-05-14T00:13:21.433Z,75.09
2019-05-14T00:14:23.278Z,75.54
2019-05-14T00:15:21.836Z,75.81
2019-05-14T00:16:24.355Z,75.77
2019-05-14T00:17:22.451Z,75.46
2019-05-14T00:18:24.089Z,76.59
2019-05-14T00:19:24.514Z,75.94
2019-05-14T00:20:24.959Z,75.75
2019-05-14T00:21:25.518Z,75.94
2019-05-14T00:22:26.056Z,76.34
2019-05-14T00:23:26.695Z,76.20
2019-05-14T00:24:27.255Z,76.29
2019-05-14T00:25:26.810Z,76.40
2019-05-14T00:26:27.872Z,76.57
2019-05-14T00:27:31.056Z,76.55
2019-05-14T00:28:28.639Z,76.60
2019-05-14T00:29:29.179Z,77.09
2019-05-14T00:30:31.664Z,77.05
2019-05-14T00:31:31.761Z,77.39
2019-05-14T00:32:31.768Z,77.17
2019-05-14T00:33:31.717Z,76.79
2019-05-14T00:34:32.032Z,77.57
2019-05-14T00:35:35.773Z,77.16
2019-05-14T00:36:33.067Z,77.66
2019-05-14T00:37:34.474Z,77.26
2019-05-14T00:38:34.943Z,77.37
2019-05-14T00:39:34.433Z,77.22
2019-05-14T00:40:35.901Z,77.04
2019-05-14T00:41:36.682Z,77.57
2019-05-14T00:42:37.239Z,77.70
2019-05-14T00:43:37.765Z,77.73
2019-05-14T00:44:51.634Z,78.07
2019-05-14T00:45:37.893Z,77.81
2019-05-14T00:46:41.118Z,78.19
2019-05-14T00:47:41.568Z,78.66
2019-05-14T00:48:42.029Z,78.23
2019-05-14T00:49:42.490Z,77.93
2019-05-14T00:50:42.098Z,77.94
2019-05-14T00:51:41.535Z,77.82
2019-05-14T00:52:46.123Z,77.98
2019-05-14T00:53:42.481Z,78.04
2019-05-14T00:54:43.933Z,77.75
2019-05-14T00:55:44.427Z,78.41
2019-05-14T00:56:44.972Z,78.53
2019-05-14T00:57:45.550Z,78.26
2019-05-14T00:58:46.196Z,78.12
2019-05-14T00:58:56.737Z,79.03
2019-05-14T00:59:58.151Z,78.98
2019-05-14T01:00:58.639Z,78.49
2019-05-14T01:01:59.179Z,78.50
2019-05-14T01:03:01.790Z,78.75
2019-05-14T01:04:01.116Z,78.02
2019-05-14T01:05:01.783Z,78.16
2019-05-14T01:06:02.220Z,77.98
2019-05-14T01:07:01.545Z,78.28
2019-05-14T01:08:01.889Z,78.80
2019-05-14T01:09:01.589Z,78.49
2019-05-14T01:10:01.639Z,78.14
2019-05-14T01:11:03.090Z,78.41
2019-05-14T01:12:03.859Z,78.52
2019-05-14T01:13:04.251Z,79.14
2019-05-14T01:14:04.763Z,79.76
2019-05-14T01:15:09.737Z,79.41
2019-05-14T01:16:04.848Z,79.17
2019-05-14T01:17:06.301Z,79.71
2019-05-14T01:18:06.927Z,79.62
2019-05-14T01:19:07.413Z,79.81
2019-05-14T01:20:08.025Z,80.27
2019-05-14T01:21:08.491Z,79.42
2019-05-14T01:22:08.945Z,79.76
2019-05-14T01:23:11.359Z,79.60
2019-05-14T01:24:08.646Z,79.51
2019-05-14T01:25:11.999Z,79.30
2019-05-14T01:26:11.516Z,79.73
2019-05-14T01:27:12.082Z,80.67
2019-05-14T01:28:11.274Z,80.46
2019-05-14T01:29:12.028Z,80.10
2019-05-14T01:30:12.523Z,79.99
2019-05-14T01:31:14.713Z,79.96
2019-05-14T01:32:12.354Z,80.06
2019-05-14T01:33:13.823Z,79.41
2019-05-14T01:34:14.288Z,80.11
2019-05-14T01:35:15.001Z,80.36
2019-05-14T01:36:15.477Z,80.35
2019-05-14T01:37:15.883Z,80.13
2019-05-14T01:38:16.430Z,80.18
2019-05-14T01:39:16.949Z,80.79
2019-05-14T01:40:17.366Z,80.79
2019-05-14T01:41:18.048Z,80.32
2019-05-14T01:42:18.418Z,80.55
2019-05-14T01:43:18.905Z,80.92
2019-05-14T01:44:21.407Z,80.73
2019-05-14T01:45:25.109Z,80.86
2019-05-14T01:46:21.030Z,80.77
2019-05-14T01:47:21.417Z,80.64
2019-05-14T01:48:21.949Z,80.42
2019-05-14T01:49:22.183Z,80.81
2019-05-14T01:50:21.716Z,80.49
2019-05-14T01:51:22.386Z,80.18
2019-05-14T01:52:22.834Z,81.17
2019-05-14T01:53:24.249Z,80.53
2019-05-14T01:54:24.797Z,80.89
2019-05-14T01:55:25.349Z,81.32
2019-05-14T01:56:24.698Z,81.32
2019-05-14T01:57:26.175Z,81.76
2019-05-14T01:58:31.180Z,82.02
2019-05-14T01:59:26.117Z,81.88
2019-05-14T02:00:26.528Z,81.68
2019-05-14T02:01:28.049Z,80.60
2019-05-14T02:02:28.708Z,81.02
2019-05-14T02:02:37.246Z,81.16
2019-05-14T02:03:40.959Z,81.20
2019-05-14T02:04:38.450Z,80.88
2019-05-14T02:05:41.574Z,81.25
2019-05-14T02:06:41.313Z,80.88
2019-05-14T02:07:42.059Z,81.18
2019-05-14T02:08:41.405Z,80.93
2019-05-14T02:09:41.955Z,80.78
2019-05-14T02:10:42.061Z,81.09
2019-05-14T02:11:42.148Z,81.46
2019-05-14T02:12:43.659Z,81.32
2019-05-14T02:13:44.335Z,81.14
2019-05-14T02:14:44.706Z,80.93
2019-05-14T02:15:45.121Z,81.05
2019-05-14T02:16:45.676Z,81.62
2019-05-14T02:17:46.230Z,80.69
2019-05-14T02:18:46.656Z,80.86
2019-05-14T02:19:47.087Z,80.87
2019-05-14T02:20:47.572Z,81.71
2019-05-14T02:21:47.772Z,81.40
2019-05-14T02:22:48.180Z,81.39
2019-05-14T02:23:48.672Z,81.97
2019-05-14T02:24:49.144Z,81.76
2019-05-14T02:25:51.686Z,81.77
2019-05-14T02:26:51.372Z,81.64
2019-05-14T02:27:51.788Z,82.23
2019-05-14T02:28:51.418Z,81.99
2019-05-14T02:29:51.925Z,82.07
2019-05-14T02:30:57.451Z,82.24
2019-05-14T02:31:51.653Z,82.25
2019-05-14T02:32:53.276Z,82.39
2019-05-14T02:33:53.686Z,82.11
2019-05-14T02:34:54.252Z,82.89
2019-05-14T02:35:54.745Z,82.86
2019-05-14T02:36:55.129Z,82.77
2019-05-14T02:37:55.636Z,82.45
2019-05-14T02:38:56.026Z,83.34
2019-05-14T02:39:59.481Z,83.20
2019-05-14T02:40:55.951Z,83.17
2019-05-14T02:41:58.950Z,83.56
2019-05-14T02:42:59.347Z,83.75
2019-05-14T02:43:59.378Z,83.51
2019-05-14T02:44:59.310Z,83.22
2019-05-14T02:46:10.828Z,83.89
2019-05-14T02:46:59.167Z,83.97
2019-05-14T02:48:00.450Z,83.87
2019-05-14T02:48:59.798Z,84.30
2019-05-14T02:49:59.971Z,83.93
2019-05-14T02:51:01.615Z,84.41
2019-05-14T02:52:02.538Z,84.28
2019-05-14T02:53:03.063Z,84.61
2019-05-14T02:54:03.727Z,84.43
2019-05-14T02:55:04.106Z,84.27
2019-05-14T02:56:04.800Z,84.72
2019-05-14T02:57:05.265Z,84.60
2019-05-14T02:58:04.616Z,84.36
2019-05-14T02:59:09.504Z,84.36
2019-05-14T03:00:05.751Z,84.42
2019-05-14T03:01:09.444Z,84.94
2019-05-14T03:02:09.547Z,84.55
2019-05-14T03:03:09.881Z,85.03
2019-05-14T03:04:09.111Z,85.19
2019-05-14T03:05:09.797Z,84.61
2019-05-14T03:06:09.598Z,84.87
2019-05-14T03:07:10.633Z,85.35
2019-05-14T03:08:10.051Z,84.86
2019-05-14T03:09:11.480Z,85.28
2019-05-14T03:09:20.560Z,85.74
2019-05-14T03:10:20.393Z,85.78
2019-05-14T03:11:21.826Z,85.14
2019-05-14T03:12:22.311Z,85.80
2019-05-14T03:13:22.949Z,85.45
2019-05-14T03:14:23.430Z,85.41
2019-05-14T03:15:23.974Z,84.99
2019-05-14T03:16:30.854Z,85.24
2019-05-14T03:17:23.912Z,85.81
2019-05-14T03:18:25.367Z,86.34
2019-05-14T03:19:25.822Z,86.74
2019-05-14T03:20:28.776Z,87.40
2019-05-14T03:21:25.705Z,86.78
2019-05-14T03:22:41.650Z,86.61
2019-05-14T03:23:30.220Z,86.52
2019-05-14T03:24:28.809Z,86.42
2019-05-14T03:25:30.165Z,86.61
2019-05-14T03:26:29.357Z,86.65
2019-05-14T03:27:30.418Z,85.90
2019-05-14T03:28:30.527Z,85.88
2019-05-14T03:29:30.989Z,86.41
2019-05-14T03:30:32.394Z,86.55
2019-05-14T03:31:33.082Z,86.84
2019-05-14T03:32:33.127Z,87.06
2019-05-14T03:33:33.946Z,86.85
2019-05-14T03:34:33.657Z,86.65
2019-05-14T03:35:42.152Z,86.57
2019-05-14T03:36:35.338Z,87.11
2019-05-14T03:37:34.338Z,86.49
2019-05-14T03:38:35.773Z,86.76
2019-05-14T03:39:39.396Z,86.13
2019-05-14T03:40:35.835Z,86.18
2019-05-14T03:41:39.690Z,87.07
2019-05-14T03:42:39.657Z,86.66
2019-05-14T03:43:39.158Z,86.65
2019-05-14T03:44:39.999Z,86.59
2019-05-14T03:45:39.104Z,86.19
2019-05-14T03:46:49.530Z,86.77
2019-05-14T03:47:39.696Z,86.65
2019-05-14T03:48:40.228Z,86.07
2019-05-14T03:49:40.357Z,86.45
2019-05-14T03:50:40.813Z,86.27
2019-05-14T03:51:42.411Z,85.99
2019-05-14T03:52:42.854Z,86.45
2019-05-14T03:53:56.923Z,86.44
2019-05-14T03:54:42.668Z,86.82
2019-05-14T03:55:44.206Z,86.59
2019-05-14T03:56:44.631Z,86.82
2019-05-14T03:57:45.300Z,87.00
2019-05-14T03:58:49.238Z,87.41
2019-05-14T03:59:45.272Z,87.18
2019-05-14T04:00:45.478Z,87.34
2019-05-14T04:01:50.713Z,87.47
2019-05-14T04:02:49.082Z,88.21
2019-05-14T04:03:50.315Z,87.35
2019-05-14T04:04:50.259Z,87.45
2019-05-14T04:05:49.502Z,87.77
2019-05-14T04:06:49.616Z,87.37
2019-05-14T04:07:50.257Z,87.42
2019-05-14T04:08:50.001Z,87.56
2019-05-14T04:09:50.070Z,87.96
2019-05-14T04:10:54.201Z,87.80
2019-05-14T04:11:51.513Z,87.65
2019-05-14T04:12:52.883Z,88.08
2019-05-14T04:13:53.407Z,87.54
2019-05-14T04:14:52.833Z,87.96
2019-05-14T04:15:54.392Z,88.06
2019-05-14T04:17:05.207Z,87.68
2019-05-14T04:17:54.848Z,88.28
2019-05-14T04:18:59.240Z,87.87
2019-05-14T04:19:55.977Z,88.04
2019-05-14T04:20:59.426Z,88.53
2019-05-14T04:21:59.905Z,88.98
2019-05-14T04:23:00.064Z,88.96
2019-05-14T04:23:59.501Z,89.12
2019-05-14T04:24:59.686Z,89.53
2019-05-14T04:26:00.523Z,89.11
2019-05-14T04:27:07.193Z,88.93
2019-05-14T04:27:59.917Z,89.04
2019-05-14T04:29:01.285Z,89.06
2019-05-14T04:30:01.879Z,88.63
2019-05-14T04:31:01.206Z,88.45
2019-05-14T04:31:10.232Z,88.74
2019-05-14T04:32:11.794Z,88.79
2019-05-14T04:33:11.237Z,88.72
2019-05-14T04:34:12.855Z,89.16
2019-05-14T04:35:13.429Z,89.25
2019-05-14T04:36:14.007Z,89.47
2019-05-14T04:37:14.407Z,89.00
2019-05-14T04:38:15.045Z,89.43
2019-05-14T04:39:15.752Z,89.94
2019-05-14T04:40:18.902Z,90.04
2019-05-14T04:41:19.222Z,89.78
2019-05-14T04:42:16.201Z,89.20
2019-05-14T04:43:19.236Z,88.74
2019-05-14T04:44:19.216Z,88.75
2019-05-14T04:45:19.719Z,88.95
2019-05-14T04:46:19.949Z,87.67
2019-05-14T04:47:31.416Z,86.83
2019-05-14T04:48:31.066Z,85.95
2019-05-14T04:49:20.125Z,84.43
2019-05-14T04:50:20.393Z,82.95
2019-05-14T04:51:20.631Z,82.21
2019-05-14T04:52:22.257Z,81.88
2019-05-14T04:53:22.678Z,79.91
2019-05-14T04:54:23.139Z,80.91
2019-05-14T04:55:23.822Z,78.51
2019-05-14T04:56:24.386Z,75.85
2019-05-14T04:57:25.745Z,74.96
2019-05-14T04:58:24.405Z,74.19
2019-05-14T04:59:29.686Z,72.26
2019-05-14T05:00:25.791Z,70.83
2019-05-14T05:01:29.468Z,69.03
2019-05-14T05:02:29.839Z,68.68
2019-05-14T05:03:30.333Z,67.73
2019-05-14T05:04:29.904Z,66.65
2019-05-14T05:05:29.984Z,64.88
2019-05-14T05:06:29.294Z,63.99
2019-05-14T05:07:29.965Z,65.86
2019-05-14T05:08:30.744Z,66.30
2019-05-14T05:09:30.320Z,64.47
2019-05-14T05:10:31.840Z,64.92
2019-05-14T05:11:32.379Z,64.64
2019-05-14T05:12:32.981Z,62.73
2019-05-14T05:13:33.357Z,60.61
2019-05-14T05:14:33.773Z,60.30
2019-05-14T05:15:34.576Z,57.76
2019-05-14T05:16:35.088Z,58.86
2019-05-14T05:17:44.166Z,58.22
2019-05-14T05:18:35.072Z,58.08
2019-05-14T05:19:39.245Z,56.15
2019-05-14T05:20:39.164Z,57.99
2019-05-14T05:21:38.711Z,56.07
2019-05-14T05:22:39.497Z,55.44
2019-05-14T05:23:38.702Z,55.34
2019-05-14T05:24:38.289Z,56.08
2019-05-14T05:25:38.678Z,54.44
2019-05-14T05:26:40.392Z,55.10
2019-05-14T05:27:41.354Z,54.30
2019-05-14T05:28:41.907Z,53.47
2019-05-14T05:29:42.453Z,52.89
2019-05-14T05:30:42.943Z,52.49
2019-05-14T05:31:43.486Z,51.51
2019-05-14T05:32:44.033Z,51.42
2019-05-14T05:33:44.755Z,51.27
2019-05-14T05:34:45.252Z,51.60
2019-05-14T05:35:45.894Z,52.16
2019-05-14T05:35:54.470Z,51.20
2019-05-14T05:36:55.850Z,51.26
2019-05-14T05:37:58.286Z,50.64
2019-05-14T05:38:56.031Z,50.81
2019-05-14T05:39:58.361Z,47.57
2019-05-14T05:40:59.946Z,48.39
2019-05-14T05:41:58.490Z,47.87
2019-05-14T05:42:58.367Z,47.89
2019-05-14T05:43:59.105Z,46.85
2019-05-14T05:44:59.432Z,46.28
2019-05-14T05:46:00.869Z,45.86
2019-05-14T05:47:01.302Z,45.87
2019-05-14T05:48:02.029Z,45.91
2019-05-14T05:49:01.437Z,45.88
2019-05-14T05:50:02.614Z,47.51
2019-05-14T05:51:03.172Z,47.49
2019-05-14T05:52:03.602Z,46.45
2019-05-14T05:53:03.988Z,45.99
2019-05-14T05:54:04.367Z,46.35
2019-05-14T05:55:04.930Z,46.13
2019-05-14T05:56:05.452Z,45.24
2019-05-14T05:57:05.957Z,43.91
2019-05-14T05:58:08.525Z,43.33
2019-05-14T05:59:06.113Z,44.63
2019-05-14T06:00:09.460Z,44.41
2019-05-14T06:01:09.683Z,44.51
2019-05-14T06:02:09.427Z,44.41
2019-05-14T06:03:10.768Z,43.23
2019-05-14T06:04:08.837Z,42.64
2019-05-14T06:05:09.090Z,43.99
2019-05-14T06:06:13.589Z,45.70
2019-05-14T06:07:10.092Z,44.46
2019-05-14T06:08:11.587Z,44.42
2019-05-14T06:09:12.169Z,43.39
2019-05-14T06:10:12.763Z,44.04
2019-05-14T06:11:13.450Z,43.90
2019-05-14T06:12:13.930Z,43.36
2019-05-14T06:13:14.588Z,43.14
2019-05-14T06:14:14.050Z,42.58
2019-05-14T06:15:15.556Z,42.34
2019-05-14T06:16:18.417Z,42.36
2019-05-14T06:17:15.881Z,41.78
2019-05-14T06:18:21.739Z,41.51
2019-05-14T06:19:18.546Z,40.15
2019-05-14T06:20:18.978Z,42.01
2019-05-14T06:21:18.983Z,41.43
2019-05-14T06:22:18.826Z,40.46
2019-05-14T06:23:19.068Z,40.57
2019-05-14T06:24:19.560Z,42.12
2019-05-14T06:25:21.113Z,42.72
2019-05-14T06:26:20.348Z,41.74
2019-05-14T06:27:21.866Z,41.03
2019-05-14T06:28:22.435Z,40.25
2019-05-14T06:29:22.870Z,41.47
2019-05-14T06:30:23.450Z,40.93
2019-05-14T06:31:23.988Z,41.94
2019-05-14T06:32:24.396Z,41.17
2019-05-14T06:33:24.924Z,40.52
2019-05-14T06:34:25.388Z,40.50
2019-05-14T06:35:28.479Z,42.12
2019-05-14T06:36:26.100Z,40.88
2019-05-14T06:37:30.170Z,40.81
2019-05-14T06:38:29.516Z,40.38
2019-05-14T06:39:28.411Z,40.30
2019-05-14T06:40:28.785Z,39.72
2019-05-14T06:41:29.087Z,39.43
2019-05-14T06:41:42.460Z,39.55
2019-05-14T06:42:39.503Z,39.56
2019-05-14T06:43:39.367Z,39.78
2019-05-14T06:44:39.312Z,39.32
2019-05-14T06:45:40.980Z,39.16
2019-05-14T06:46:41.481Z,39.30
2019-05-14T06:47:42.115Z,39.29
2019-05-14T06:48:42.697Z,39.44
2019-05-14T06:49:42.460Z,39.43
2019-05-14T06:50:43.903Z,40.36
2019-05-14T06:51:44.560Z,40.79
2019-05-14T06:52:45.125Z,40.72
2019-05-14T06:53:45.597Z,40.55
2019-05-14T06:54:46.061Z,40.37
2019-05-14T06:55:48.402Z,40.17
2019-05-14T06:56:45.950Z,40.31
2019-05-14T06:57:48.126Z,40.48
2019-05-14T06:58:49.073Z,40.84
2019-05-14T06:59:48.375Z,41.55
2019-05-14T07:00:49.510Z,41.79
2019-05-14T07:01:49.105Z,41.90
2019-05-14T07:02:49.350Z,42.30
2019-05-14T07:03:49.773Z,41.94
2019-05-14T07:04:51.521Z,41.83
2019-05-14T07:05:52.047Z,41.86
2019-05-14T07:06:52.492Z,41.63
2019-05-14T07:07:52.962Z,41.66
2019-05-14T07:08:53.744Z,41.26
2019-05-14T07:09:54.281Z,41.96
2019-05-14T07:10:54.665Z,42.14
2019-05-14T07:11:55.394Z,41.97
2019-05-14T07:12:55.783Z,42.18
2019-05-14T07:13:58.137Z,41.56
2019-05-14T07:14:55.581Z,41.13
2019-05-14T07:15:58.353Z,40.98
2019-05-14T07:16:58.912Z,41.06
2019-05-14T07:17:58.390Z,40.98
2019-05-14T07:18:59.147Z,41.17
2019-05-14T07:19:58.657Z,40.67
2019-05-14T07:21:00.334Z,40.92
2019-05-14T07:22:00.935Z,40.97
2019-05-14T07:23:01.589Z,40.75
2019-05-14T07:24:02.324Z,41.78
2019-05-14T07:25:02.991Z,41.82
2019-05-14T07:26:02.546Z,42.67
2019-05-14T07:27:04.055Z,43.22
2019-05-14T07:28:04.463Z,44.14
2019-05-14T07:29:04.898Z,44.71
2019-05-14T07:30:05.621Z,45.76
2019-05-14T07:31:06.112Z,45.34
2019-05-14T07:32:09.080Z,45.94
2019-05-14T07:33:06.186Z,45.63
2019-05-14T07:34:08.928Z,45.87
2019-05-14T07:35:09.108Z,45.57
2019-05-14T07:36:08.908Z,45.50
2019-05-14T07:37:09.448Z,44.89
2019-05-14T07:38:09.300Z,45.82
2019-05-14T07:39:09.930Z,45.81
2019-05-14T07:40:11.804Z,45.31
2019-05-14T07:41:11.076Z,45.19
2019-05-14T07:42:11.737Z,44.40
2019-05-14T07:43:12.366Z,44.96
2019-05-14T07:44:12.987Z,44.62
2019-05-14T07:45:14.023Z,44.85
2019-05-14T07:46:14.174Z,44.85
2019-05-14T07:47:14.235Z,45.00
2019-05-14T07:48:14.715Z,44.85
2019-05-14T07:49:15.637Z,45.09
2019-05-14T07:49:24.788Z,46.19
2019-05-14T07:50:28.826Z,46.17
2019-05-14T07:51:28.239Z,45.86
2019-05-14T07:52:28.423Z,46.14
2019-05-14T07:53:36.079Z,46.65
2019-05-14T07:54:28.328Z,46.60
2019-05-14T07:55:28.845Z,47.38
2019-05-14T07:56:29.437Z,46.70
2019-05-14T07:57:29.365Z,47.28
2019-05-14T07:58:29.365Z,46.96
2019-05-14T07:59:29.179Z,46.97
2019-05-14T08:00:30.725Z,47.70
2019-05-14T08:01:31.101Z,46.93
2019-05-14T08:02:31.251Z,47.55
2019-05-14T08:03:32.090Z,47.55
2019-05-14T08:04:32.640Z,47.11
2019-05-14T08:05:33.251Z,47.56
2019-05-14T08:06:33.730Z,46.55
2019-05-14T08:07:34.270Z,47.48
2019-05-14T08:08:34.706Z,47.82
2019-05-14T08:09:34.737Z,47.99
2019-05-14T08:10:35.279Z,47.97
2019-05-14T08:11:35.669Z,46.59
2019-05-14T08:12:36.019Z,47.45
2019-05-14T08:13:38.784Z,48.12
2019-05-14T08:14:45.331Z,48.88
2019-05-14T08:15:38.648Z,48.93
2019-05-14T08:16:38.162Z,47.89
2019-05-14T08:17:38.791Z,47.59
2019-05-14T08:18:39.527Z,47.73
2019-05-14T08:19:38.765Z,48.71
2019-05-14T08:20:38.724Z,48.33
2019-05-14T08:21:40.391Z,48.40
2019-05-14T08:22:40.744Z,49.03
2019-05-14T08:23:41.320Z,48.62
2019-05-14T08:24:41.820Z,49.39
2019-05-14T08:25:42.504Z,48.94
2019-05-14T08:26:44.239Z,48.73
2019-05-14T08:27:41.824Z,49.24
2019-05-14T08:28:42.834Z,48.88
2019-05-14T08:29:43.457Z,48.24
2019-05-14T08:30:42.781Z,49.02
2019-05-14T08:31:44.730Z,48.30
2019-05-14T08:32:45.287Z,48.42
2019-05-14T08:33:48.532Z,48.60
2019-05-14T08:34:47.835Z,49.20
2019-05-14T08:35:46.002Z,48.72
2019-05-14T08:36:48.373Z,48.94
2019-05-14T08:37:49.232Z,48.00
2019-05-14T08:38:50.073Z,48.80
2019-05-14T08:39:48.828Z,50.43
2019-05-14T08:40:49.108Z,50.58
2019-05-14T08:41:58.603Z,49.49
2019-05-14T08:42:50.320Z,49.12
2019-05-14T08:43:50.349Z,48.23
2019-05-14T08:44:51.581Z,48.92
2019-05-14T08:45:51.653Z,48.75
2019-05-14T08:46:52.295Z,48.14
2019-05-14T08:47:53.145Z,48.52
2019-05-14T08:48:53.726Z,47.60
2019-05-14T08:49:54.250Z,46.81
2019-05-14T08:50:54.910Z,46.38
2019-05-14T08:51:54.971Z,47.83
2019-05-14T08:52:58.119Z,47.82
2019-05-14T08:53:58.956Z,48.69
2019-05-14T08:55:07.251Z,48.97
2019-05-14T08:55:58.885Z,48.20
2019-05-14T08:56:58.513Z,47.77
2019-05-14T08:57:59.330Z,46.70
2019-05-14T08:58:59.427Z,47.19
2019-05-14T08:59:59.912Z,47.77
2019-05-14T09:01:00.282Z,47.47
2019-05-14T09:02:06.278Z,47.62
2019-05-14T09:03:03.167Z,48.38
2019-05-14T09:04:01.538Z,48.28
2019-05-14T09:05:04.918Z,47.77
2019-05-14T09:05:13.093Z,47.51
2019-05-14T09:06:14.397Z,47.57
2019-05-14T09:07:14.837Z,47.92
2019-05-14T09:08:14.294Z,47.57
2019-05-14T09:09:18.122Z,48.25
2019-05-14T09:10:15.481Z,47.20
2019-05-14T09:11:22.859Z,46.44
2019-05-14T09:12:18.799Z,47.01
2019-05-14T09:13:18.501Z,46.21
2019-05-14T09:14:18.801Z,45.43
2019-05-14T09:15:18.825Z,46.88
2019-05-14T09:16:38.078Z,45.60
2019-05-14T09:17:19.830Z,44.61
2019-05-14T09:18:21.394Z,45.01
2019-05-14T09:19:22.009Z,44.07
2019-05-14T09:20:22.476Z,44.92
2019-05-14T09:21:23.171Z,45.72
2019-05-14T09:22:23.747Z,44.35
2019-05-14T09:23:24.611Z,44.33
2019-05-14T09:24:25.525Z,44.03
2019-05-14T09:25:25.172Z,43.97
2019-05-14T09:26:28.342Z,44.06
2019-05-14T09:27:25.605Z,45.53
2019-05-14T09:28:28.562Z,44.13
2019-05-14T09:29:29.853Z,43.64
2019-05-14T09:30:29.001Z,44.97
2019-05-14T09:31:29.565Z,45.16
2019-05-14T09:32:29.250Z,44.91
2019-05-14T09:33:29.754Z,44.87
2019-05-14T09:34:30.046Z,44.00
2019-05-14T09:35:31.757Z,44.02
2019-05-14T09:36:32.211Z,44.99
2019-05-14T09:37:32.848Z,44.67
2019-05-14T09:38:33.326Z,45.18
2019-05-14T09:39:34.229Z,44.82
2019-05-14T09:40:34.355Z,44.69
2019-05-14T09:41:33.774Z,45.21
2019-05-14T09:42:35.601Z,44.77
2019-05-14T09:43:39.266Z,44.14
2019-05-14T09:44:38.688Z,44.48
2019-05-14T09:45:38.792Z,45.02
2019-05-14T09:46:38.502Z,44.01
2019-05-14T09:47:38.967Z,45.10
2019-05-14T09:48:38.977Z,45.47
2019-05-14T09:49:40.497Z,44.49
2019-05-14T09:50:41.090Z,45.33
2019-05-14T09:51:41.844Z,45.36
2019-05-14T09:52:41.879Z,43.67
2019-05-14T09:53:42.453Z,44.61
2019-05-14T09:54:44.178Z,45.59
2019-05-14T09:55:42.368Z,45.77
2019-05-14T09:56:43.660Z,45.95
2019-05-14T09:57:44.250Z,45.36
2019-05-14T09:58:44.933Z,45.20
2019-05-14T09:59:47.830Z,44.73
2019-05-14T10:00:45.234Z,45.24
2019-05-14T10:01:45.298Z,45.29
2019-05-14T10:02:49.209Z,45.12
2019-05-14T10:03:49.354Z,45.14
2019-05-14T10:04:49.071Z,45.02
2019-05-14T10:05:50.207Z,44.83
2019-05-14T10:06:48.701Z,45.77
2019-05-14T10:07:49.654Z,45.11
2019-05-14T10:08:49.555Z,45.15
2019-05-14T10:09:50.299Z,45.88
2019-05-14T10:10:51.790Z,47.14
2019-05-14T10:11:52.374Z,45.33
2019-05-14T10:12:01.400Z,45.38
2019-05-14T10:13:02.780Z,45.17
2019-05-14T10:14:02.459Z,45.72
2019-05-14T10:15:03.921Z,43.91
2019-05-14T10:16:03.999Z,45.63
2019-05-14T10:17:04.539Z,45.42
2019-05-14T10:18:05.203Z,44.87
2019-05-14T10:19:04.794Z,44.30
2019-05-14T10:20:08.833Z,42.53
2019-05-14T10:21:08.336Z,42.60
2019-05-14T10:22:08.272Z,42.73
2019-05-14T10:23:09.272Z,43.90
2019-05-14T10:24:09.334Z,44.08
2019-05-14T10:25:09.152Z,43.55
2019-05-14T10:26:09.254Z,44.25
2019-05-14T10:27:09.287Z,43.57
2019-05-14T10:28:09.904Z,44.76
2019-05-14T10:29:11.472Z,44.80
2019-05-14T10:30:12.052Z,43.30
2019-05-14T10:31:13.395Z,44.52
2019-05-14T10:32:12.076Z,44.44
2019-05-14T10:33:14.933Z,43.58
2019-05-14T10:34:13.306Z,43.65
2019-05-14T10:35:15.239Z,43.50
2019-05-14T10:36:18.755Z,43.99
2019-05-14T10:37:15.546Z,42.82
2019-05-14T10:38:19.010Z,44.33
2019-05-14T10:39:19.201Z,45.58
2019-05-14T10:40:18.392Z,47.55
2019-05-14T10:41:18.526Z,46.33
2019-05-14T10:42:20.112Z,45.93
2019-05-14T10:43:19.609Z,45.61
2019-05-14T10:44:19.486Z,45.25
2019-05-14T10:45:20.710Z,45.79
2019-05-14T10:46:21.340Z,45.39
2019-05-14T10:47:22.010Z,45.65
2019-05-14T10:48:22.785Z,46.74
2019-05-14T10:49:23.950Z,47.64
2019-05-14T10:50:22.547Z,45.14
2019-05-14T10:51:24.173Z,44.97
2019-05-14T10:52:24.995Z,45.50
2019-05-14T10:53:28.685Z,44.08
2019-05-14T10:54:26.994Z,43.79
2019-05-14T10:55:27.814Z,43.60
2019-05-14T10:56:29.503Z,42.82
2019-05-14T10:57:29.000Z,43.85
2019-05-14T10:58:29.045Z,43.43
2019-05-14T10:59:29.416Z,42.99
2019-05-14T11:00:29.065Z,42.66
2019-05-14T11:01:30.716Z,42.33
2019-05-14T11:02:30.751Z,42.41
2019-05-14T11:03:31.696Z,42.25
2019-05-14T11:04:34.388Z,41.42
2019-05-14T11:05:32.291Z,42.42
2019-05-14T11:06:34.182Z,41.94
2019-05-14T11:07:34.731Z,42.95
2019-05-14T11:08:35.442Z,41.95
2019-05-14T11:09:38.080Z,41.81
2019-05-14T11:10:35.835Z,41.89
2019-05-14T11:11:38.214Z,42.22
2019-05-14T11:12:39.388Z,43.16
2019-05-14T11:13:39.407Z,43.01
2019-05-14T11:14:39.024Z,42.66
2019-05-14T11:15:39.522Z,43.75
2019-05-14T11:16:41.992Z,45.12
2019-05-14T11:17:40.665Z,46.00
2019-05-14T11:18:40.549Z,45.09
2019-05-14T11:19:41.149Z,43.74
2019-05-14T11:20:43.092Z,43.75
2019-05-14T11:21:43.612Z,43.59
2019-05-14T11:22:44.457Z,43.76
2019-05-14T11:23:44.915Z,43.88
2019-05-14T11:24:45.391Z,43.96
2019-05-14T11:24:53.923Z,44.45
2019-05-14T11:25:58.045Z,44.21
2019-05-14T11:26:55.379Z,43.94
2019-05-14T11:27:58.691Z,43.90
2019-05-14T11:28:58.595Z,43.92
2019-05-14T11:29:58.681Z,44.32
2019-05-14T11:30:57.977Z,44.68
2019-05-14T11:31:59.879Z,44.87
2019-05-14T11:33:00.668Z,44.35
2019-05-14T11:34:01.305Z,43.94
2019-05-14T11:35:02.207Z,43.97
2019-05-14T11:36:02.755Z,45.85
2019-05-14T11:37:03.472Z,45.55
2019-05-14T11:38:03.509Z,45.90
2019-05-14T11:39:04.336Z,45.14
2019-05-14T11:40:05.199Z,44.67
2019-05-14T11:41:05.748Z,45.13
2019-05-14T11:42:08.564Z,45.82
2019-05-14T11:43:05.239Z,45.54
2019-05-14T11:44:09.104Z,45.74
2019-05-14T11:45:08.804Z,45.20
2019-05-14T11:46:08.607Z,45.82
2019-05-14T11:47:09.008Z,46.07
2019-05-14T11:48:09.007Z,45.54
2019-05-14T11:49:10.873Z,46.21
2019-05-14T11:50:11.460Z,46.16
2019-05-14T11:51:11.993Z,45.69
2019-05-14T11:52:12.583Z,45.02
2019-05-14T11:53:12.057Z,45.79
2019-05-14T11:54:13.522Z,44.90
2019-05-14T11:55:14.036Z,45.12
2019-05-14T11:56:14.627Z,45.01
2019-05-14T11:57:15.101Z,45.95
2019-05-14T11:58:15.575Z,45.79
2019-05-14T11:59:16.159Z,46.23
2019-05-14T12:00:19.316Z,46.05
2019-05-14T12:01:18.966Z,45.37
2019-05-14T12:02:18.950Z,44.89
2019-05-14T12:03:19.620Z,44.21
2019-05-14T12:04:18.772Z,44.67
2019-05-14T12:05:19.048Z,43.82
2019-05-14T12:06:18.937Z,42.58
2019-05-14T12:07:20.568Z,43.61
2019-05-14T12:08:21.066Z,42.54
2019-05-14T12:09:21.588Z,42.46
2019-05-14T12:10:22.334Z,42.08
2019-05-14T12:11:23.331Z,42.50
2019-05-14T12:12:22.984Z,43.35
2019-05-14T12:13:24.426Z,43.28
2019-05-14T12:14:24.983Z,43.50
2019-05-14T12:15:25.952Z,42.95
2019-05-14T12:16:29.173Z,44.00
2019-05-14T12:17:29.325Z,45.44
2019-05-14T12:18:29.016Z,44.40
2019-05-14T12:19:28.405Z,44.49
2019-05-14T12:20:29.651Z,45.32
2019-05-14T12:21:29.133Z,44.62
2019-05-14T12:22:30.741Z,44.06
2019-05-14T12:23:31.283Z,43.82
2019-05-14T12:24:32.237Z,44.58
2019-05-14T12:25:33.033Z,44.02
2019-05-14T12:25:45.572Z,43.89
2019-05-14T12:26:49.071Z,43.88
2019-05-14T12:27:49.448Z,44.53
2019-05-14T12:28:49.356Z,45.40
2019-05-14T12:29:49.729Z,44.30
2019-05-14T12:30:49.203Z,45.03
2019-05-14T12:31:50.701Z,44.47
2019-05-14T12:32:50.357Z,44.11
2019-05-14T12:33:50.791Z,43.78
2019-05-14T12:34:51.493Z,43.34
2019-05-14T12:35:53.445Z,43.89
2019-05-14T12:36:54.229Z,44.53
2019-05-14T12:37:54.380Z,44.73
2019-05-14T12:38:55.154Z,45.07
2019-05-14T12:39:55.839Z,43.87
2019-05-14T12:40:58.380Z,43.19
2019-05-14T12:41:58.158Z,43.21
2019-05-14T12:42:59.123Z,44.03
2019-05-14T12:43:58.965Z,43.69
2019-05-14T12:44:58.697Z,43.17
2019-05-14T12:45:59.499Z,43.57
2019-05-14T12:46:59.823Z,42.75
2019-05-14T12:48:01.318Z,42.82
2019-05-14T12:49:01.874Z,42.51
2019-05-14T12:50:02.523Z,43.57